Time;durP1;ratioP1;P1;durP2;ratioP2;P2;SDS_P1;SDS_P2;PMS_P1;PMS_P2;Temp;Humidity;BMP_temperature;BMP_pressure;BME280_temperature;BME280_humidity;BME280_pressure;Samples;Min_cycle;Max_cycle;Signal;HPM_P1;HPM_P2
2024/04/17 00:00:47;;;;;;;5.13;1.40;;;7.70;99.00;;;;;;5483245;25;21195;-85
2024/04/17 00:03:16;;;;;;;1.40;1.30;;;7.80;99.00;;;;;;5478567;26;21112;-86
2024/04/17 00:05:44;;;;;;;1.90;1.10;;;7.80;99.00;;;;;;5461166;26;21435;-85
2024/04/17 00:08:13;;;;;;;1.20;1.10;;;7.90;99.00;;;;;;5476614;26;20572;-86
2024/04/17 00:10:40;;;;;;;1.13;1.03;;;7.90;99.00;;;;;;5479328;26;20616;-86
2024/04/17 00:13:08;;;;;;;1.93;1.43;;;8.00;99.00;;;;;;5472501;26;20556;-85
2024/04/17 00:15:34;;;;;;;2.93;1.03;;;8.00;99.00;;;;;;5454497;26;20560;-85
2024/04/17 00:18:03;;;;;;;1.33;1.17;;;8.00;99.00;;;;;;5473161;26;20564;-84
2024/04/17 00:20:30;;;;;;;1.20;1.10;;;8.00;99.00;;;;;;5479478;26;20564;-86
2024/04/17 00:23:01;;;;;;;0.97;0.97;;;8.00;99.00;;;;;;5467725;26;20548;-85
2024/04/17 00:25:27;;;;;;;1.17;1.00;;;8.10;99.00;;;;;;5476580;26;20593;-85
2024/04/17 00:27:56;;;;;;;1.97;1.77;;;8.00;99.00;;;;;;5473677;26;20557;-85
2024/04/17 00:30:22;;;;;;;2.20;1.50;;;8.00;99.00;;;;;;5466730;26;20608;-85
2024/04/17 00:32:51;;;;;;;1.23;1.13;;;8.00;99.00;;;;;;5474977;26;20605;-85
2024/04/17 00:35:17;;;;;;;2.07;1.17;;;8.00;99.00;;;;;;5480003;26;20985;-86
2024/04/17 00:37:46;;;;;;;1.90;1.00;;;8.00;99.00;;;;;;5472550;26;20689;-86
2024/04/17 00:40:15;;;;;;;1.30;1.03;;;8.00;99.00;;;;;;5477680;26;20569;-86
2024/04/17 00:42:44;;;;;;;1.40;1.30;;;8.00;99.00;;;;;;5477390;26;20659;-85
2024/04/17 00:45:10;;;;;;;1.40;1.00;;;8.00;99.00;;;;;;5471750;26;21183;-85
2024/04/17 00:47:38;;;;;;;1.20;1.10;;;8.00;99.00;;;;;;5460232;26;20556;-85
2024/04/17 00:50:07;;;;;;;1.20;1.10;;;8.00;99.00;;;;;;5475518;26;20600;-85
2024/04/17 00:52:36;;;;;;;2.90;1.57;;;8.00;99.00;;;;;;5477890;26;21242;-86
2024/04/17 00:55:04;;;;;;;1.93;1.20;;;8.00;99.00;;;;;;5471938;26;21127;-86
2024/04/17 00:57:37;;;;;;;1.00;0.93;;;8.00;99.00;;;;;;5467167;26;20577;-87
2024/04/17 01:00:04;;;;;;;1.37;1.23;;;8.00;99.00;;;;;;5475203;26;20616;-86
2024/04/17 01:02:33;;;;;;;1.53;1.13;;;8.00;99.00;;;;;;5472434;26;20557;-84
2024/04/17 01:04:59;;;;;;;1.00;0.90;;;8.00;99.00;;;;;;5479034;26;20678;-86
2024/04/17 01:07:27;;;;;;;2.73;1.40;;;8.00;99.00;;;;;;5474695;26;20809;-86
2024/04/17 01:09:54;;;;;;;1.50;1.23;;;8.00;99.00;;;;;;5474660;26;20708;-86
2024/04/17 01:12:23;;;;;;;1.13;1.03;;;8.00;99.00;;;;;;5478003;26;20931;-86
2024/04/17 01:14:51;;;;;;;1.37;1.27;;;8.00;99.00;;;;;;5456195;26;20572;-86
2024/04/17 01:17:20;;;;;;;1.83;1.50;;;8.00;99.00;;;;;;5476161;26;21108;-87
2024/04/17 01:19:46;;;;;;;1.40;1.23;;;8.00;99.00;;;;;;5478175;26;20557;-86
2024/04/17 01:22:15;;;;;;;2.00;1.20;;;8.00;99.00;;;;;;5471080;26;20590;-85
2024/04/17 01:24:44;;;;;;;1.77;1.30;;;8.00;99.00;;;;;;5476768;26;20999;-87
2024/04/17 01:27:13;;;;;;;2.37;1.40;;;8.00;99.00;;;;;;5477459;26;20673;-86
2024/04/17 01:29:39;;;;;;;1.80;1.67;;;8.00;99.00;;;;;;5471159;26;20618;-86
2024/04/17 01:32:08;;;;;;;1.63;1.43;;;8.00;99.00;;;;;;5459384;26;21078;-86
2024/04/17 01:34:34;;;;;;;1.97;1.40;;;7.90;99.00;;;;;;5475634;26;20545;-86
2024/04/17 01:37:03;;;;;;;1.60;1.40;;;8.00;99.00;;;;;;5473075;26;20610;-86
2024/04/17 01:39:29;;;;;;;1.83;1.20;;;8.00;99.00;;;;;;5472116;26;20612;-86
2024/04/17 01:42:00;;;;;;;1.43;1.27;;;8.00;99.00;;;;;;5474040;26;20583;-87
2024/04/17 01:44:27;;;;;;;1.97;1.30;;;8.00;99.00;;;;;;5478025;26;20720;-86
2024/04/17 01:46:55;;;;;;;1.33;1.23;;;8.00;99.00;;;;;;5470248;26;20670;-88
2024/04/17 01:49:21;;;;;;;1.33;1.23;;;8.00;99.00;;;;;;5478052;26;20561;-88
2024/04/17 01:51:50;;;;;;;2.63;1.60;;;8.00;99.00;;;;;;5477354;26;20561;-88
2024/04/17 01:54:16;;;;;;;1.30;1.20;;;8.00;99.00;;;;;;5471314;26;20568;-88
2024/04/17 01:56:45;;;;;;;1.30;1.20;;;8.00;99.00;;;;;;5476737;26;20569;-88
2024/04/17 01:59:14;;;;;;;1.43;1.30;;;8.00;99.00;;;;;;5478358;26;20986;-88
2024/04/17 02:01:42;;;;;;;3.10;1.30;;;8.00;99.00;;;;;;5471275;26;20781;-87
2024/04/17 02:04:09;;;;;;;1.40;1.30;;;8.00;99.00;;;;;;5454922;26;20679;-87
2024/04/17 02:06:37;;;;;;;1.43;1.33;;;8.00;99.00;;;;;;5473056;26;20564;-88
2024/04/17 02:09:03;;;;;;;1.90;1.50;;;8.00;99.00;;;;;;5473457;26;21105;-87
2024/04/17 02:11:32;;;;;;;2.53;1.80;;;8.00;99.00;;;;;;5476219;26;20674;-87
2024/04/17 02:13:59;;;;;;;2.80;1.70;;;8.00;99.00;;;;;;5476253;25;20562;-88
2024/04/17 02:16:30;;;;;;;3.03;1.70;;;8.00;99.00;;;;;;5479818;26;20668;-87
2024/04/17 02:18:56;;;;;;;2.07;1.80;;;8.00;99.00;;;;;;5483424;26;21110;-87
2024/04/17 02:21:25;;;;;;;2.30;2.20;;;8.00;99.00;;;;;;5481492;26;20652;-87
2024/04/17 02:23:51;;;;;;;1.60;1.50;;;8.00;99.00;;;;;;5482471;26;21265;-87
2024/04/17 02:26:20;;;;;;;1.40;1.30;;;8.00;99.00;;;;;;5485208;26;20564;-87
2024/04/17 02:28:46;;;;;;;1.40;1.27;;;8.00;99.00;;;;;;5474451;26;20594;-86
2024/04/17 02:31:14;;;;;;;2.70;1.70;;;7.90;99.00;;;;;;5480674;26;20556;-88
2024/04/17 02:33:43;;;;;;;1.83;1.67;;;7.90;99.00;;;;;;5485687;26;20593;-89
2024/04/17 02:36:12;;;;;;;1.60;1.50;;;7.90;99.00;;;;;;5472451;26;20650;-86
2024/04/17 02:38:38;;;;;;;2.43;1.70;;;8.00;99.00;;;;;;5483756;26;20604;-87
2024/04/17 02:41:07;;;;;;;1.80;1.50;;;8.00;99.00;;;;;;5484619;26;20553;-87
2024/04/17 02:43:33;;;;;;;1.70;1.60;;;7.90;99.00;;;;;;5477535;26;20754;-87
2024/04/17 02:46:02;;;;;;;1.53;1.43;;;8.00;99.00;;;;;;5481735;26;20557;-86
2024/04/17 02:48:28;;;;;;;2.10;1.77;;;7.90;99.00;;;;;;5485329;26;20607;-87
2024/04/17 02:50:59;;;;;;;2.10;1.90;;;8.00;99.00;;;;;;5476894;26;20565;-87
2024/04/17 02:53:25;;;;;;;1.90;1.80;;;8.00;99.00;;;;;;5465502;26;20572;-86
2024/04/17 02:55:54;;;;;;;1.50;1.40;;;8.00;99.00;;;;;;5479695;26;20713;-87
2024/04/17 02:58:20;;;;;;;2.13;1.63;;;7.90;99.00;;;;;;5484729;26;20564;-80
2024/04/17 03:00:49;;;;;;;3.43;1.60;;;8.00;99.00;;;;;;5478399;26;20556;-87
2024/04/17 03:03:15;;;;;;;3.57;2.07;;;7.90;99.00;;;;;;5481803;26;20667;-87
2024/04/17 03:05:44;;;;;;;1.77;1.50;;;7.90;99.00;;;;;;5484676;26;20764;-88
2024/04/17 03:08:13;;;;;;;2.53;1.43;;;7.90;99.00;;;;;;5472378;26;20661;-87
2024/04/17 03:10:41;;;;;;;2.20;1.80;;;7.90;99.00;;;;;;5482276;26;21052;-88
2024/04/17 03:13:08;;;;;;;2.47;1.70;;;7.90;99.00;;;;;;5484643;26;20549;-88
2024/04/17 03:15:37;;;;;;;2.60;1.67;;;8.00;99.00;;;;;;5477051;26;20572;-88
2024/04/17 03:18:03;;;;;;;2.37;1.70;;;8.00;99.00;;;;;;5471207;26;20659;-86
2024/04/17 03:20:34;;;;;;;2.60;1.70;;;7.90;99.00;;;;;;5476491;26;20553;-88
2024/04/17 03:23:00;;;;;;;2.10;1.67;;;7.90;99.00;;;;;;5484413;26;21327;-87
2024/04/17 03:25:32;;;;;;;2.40;1.63;;;7.90;99.00;;;;;;5475993;26;20643;-87
2024/04/17 03:27:58;;;;;;;4.30;1.80;;;7.90;99.00;;;;;;5458437;26;20562;-87
2024/04/17 03:30:27;;;;;;;1.73;1.63;;;7.90;99.00;;;;;;5475480;26;20570;-87
2024/04/17 03:32:55;;;;;;;2.00;1.47;;;7.80;99.00;;;;;;5477916;26;20575;-87
2024/04/17 03:35:22;;;;;;;3.27;1.77;;;7.80;99.00;;;;;;5475405;25;20569;-88
2024/04/17 03:37:50;;;;;;;1.70;1.50;;;7.80;99.00;;;;;;5476301;26;20553;-87
2024/04/17 03:40:19;;;;;;;1.63;1.53;;;7.90;99.00;;;;;;5479634;26;20722;-87
2024/04/17 03:42:51;;;;;;;1.67;1.57;;;7.80;99.00;;;;;;5472500;26;20561;-87
2024/04/17 03:45:19;;;;;;;2.20;1.63;;;7.80;99.00;;;;;;5473171;26;20698;-86
2024/04/17 03:47:48;;;;;;;2.00;1.80;;;7.80;99.00;;;;;;5477927;26;20565;-87
2024/04/17 03:50:14;;;;;;;2.03;1.40;;;7.80;99.00;;;;;;5479311;26;20556;-87
2024/04/17 03:52:43;;;;;;;2.50;1.60;;;7.80;99.00;;;;;;5473146;26;20556;-87
2024/04/17 03:55:09;;;;;;;1.50;1.40;;;7.80;99.00;;;;;;5462596;26;20570;-86
2024/04/17 03:57:38;;;;;;;2.03;1.50;;;7.80;99.00;;;;;;5475083;26;20550;-86
2024/04/17 04:00:08;;;;;;;2.33;1.50;;;7.80;99.00;;;;;;5480970;26;20572;-86
2024/04/17 04:02:37;;;;;;;1.70;1.60;;;7.80;99.00;;;;;;5467057;26;20560;-87
2024/04/17 04:05:03;;;;;;;1.67;1.40;;;7.80;99.00;;;;;;5477812;26;20560;-86
2024/04/17 04:07:32;;;;;;;2.37;1.53;;;7.90;99.00;;;;;;5478939;26;21179;-86
2024/04/17 04:09:58;;;;;;;1.30;1.10;;;7.80;99.00;;;;;;5472420;26;20623;-86
2024/04/17 04:12:27;;;;;;;1.60;1.50;;;7.80;99.00;;;;;;5477455;26;20664;-88
2024/04/17 04:14:53;;;;;;;2.83;1.43;;;7.80;99.00;;;;;;5479607;26;21067;-87
2024/04/17 04:17:25;;;;;;;1.53;1.30;;;7.80;99.00;;;;;;5472737;26;20588;-88
2024/04/17 04:19:52;;;;;;;1.70;1.50;;;7.80;99.00;;;;;;5469246;25;20568;-88
2024/04/17 04:22:20;;;;;;;1.63;1.53;;;7.80;99.00;;;;;;5476532;26;20666;-87
2024/04/17 04:24:47;;;;;;;2.00;1.30;;;7.80;99.00;;;;;;5479638;26;20600;-86
2024/04/17 04:27:15;;;;;;;1.97;1.67;;;7.80;99.00;;;;;;5471740;26;20549;-87
2024/04/17 04:29:42;;;;;;;1.63;1.53;;;7.80;99.00;;;;;;5476825;26;20936;-87
2024/04/17 04:32:10;;;;;;;2.80;2.30;;;7.80;99.00;;;;;;5479074;26;20573;-86
2024/04/17 04:34:39;;;;;;;1.60;1.50;;;7.80;99.00;;;;;;5472646;26;20704;-86
2024/04/17 04:37:08;;;;;;;2.73;1.50;;;7.80;99.00;;;;;;5471864;26;20561;-86
2024/04/17 04:39:34;;;;;;;1.40;1.30;;;7.80;99.00;;;;;;5477873;26;20556;-85
2024/04/17 04:42:03;;;;;;;2.00;1.50;;;7.80;99.00;;;;;;5471784;26;20568;-85
2024/04/17 04:44:29;;;;;;;1.37;1.27;;;7.80;99.00;;;;;;5468737;26;21163;-85
2024/04/17 04:47:01;;;;;;;2.50;1.40;;;7.80;99.00;;;;;;5473696;26;20556;-86
2024/04/17 04:49:27;;;;;;;1.63;1.53;;;7.70;99.00;;;;;;5479058;26;20609;-85
2024/04/17 04:51:58;;;;;;;2.40;1.93;;;7.70;99.00;;;;;;5471964;26;20669;-86
2024/04/17 04:54:25;;;;;;;1.90;1.70;;;7.70;99.00;;;;;;5454486;26;20619;-84
2024/04/17 04:56:54;;;;;;;1.93;1.80;;;7.80;99.00;;;;;;5475167;26;21027;-83
2024/04/17 04:59:20;;;;;;;1.50;1.40;;;7.70;99.00;;;;;;5479449;26;20565;-82
2024/04/17 05:01:49;;;;;;;2.30;1.80;;;7.70;99.00;;;;;;5470886;26;20624;-83
2024/04/17 05:04:15;;;;;;;2.30;1.90;;;7.70;99.00;;;;;;5476509;26;20569;-84
2024/04/17 05:06:44;;;;;;;2.03;1.70;;;7.70;99.00;;;;;;5476671;26;20681;-83
2024/04/17 05:09:12;;;;;;;1.90;1.80;;;7.70;99.00;;;;;;5459485;26;20564;-84
2024/04/17 05:11:41;;;;;;;2.40;2.20;;;7.70;99.00;;;;;;5477008;26;20569;-85
2024/04/17 05:14:07;;;;;;;7.30;4.90;;;7.70;99.00;;;;;;5478176;26;20569;-85
2024/04/17 05:16:36;;;;;;;5.47;4.17;;;7.60;99.00;;;;;;5471497;26;20564;-83
2024/04/17 05:19:02;;;;;;;3.90;3.50;;;7.60;99.00;;;;;;5464704;26;20556;-83
2024/04/17 05:21:32;;;;;;;8.33;5.73;;;7.70;99.00;;;;;;5473414;26;20557;-83
2024/04/17 05:23:59;;;;;;;3.10;2.77;;;7.60;99.00;;;;;;5478907;26;20925;-84
2024/04/17 05:26:30;;;;;;;3.37;2.30;;;7.70;99.00;;;;;;5466340;26;20609;-83
2024/04/17 05:28:56;;;;;;;4.57;2.23;;;7.70;99.00;;;;;;5477131;26;20660;-84
2024/04/17 05:31:25;;;;;;;2.27;2.00;;;7.60;99.00;;;;;;5476602;26;20609;-84
2024/04/17 05:33:51;;;;;;;1.20;1.13;;;7.60;99.00;;;;;;5470959;26;20613;-84
2024/04/17 05:36:20;;;;;;;1.83;1.47;;;7.60;99.00;;;;;;5476832;26;20889;-84
2024/04/17 05:38:46;;;;;;;1.70;1.17;;;7.50;99.00;;;;;;5477373;26;20629;-83
2024/04/17 05:41:15;;;;;;;0.80;0.80;;;7.50;99.00;;;;;;5470905;26;20643;-85
2024/04/17 05:43:44;;;;;;;0.80;0.80;;;7.50;99.00;;;;;;5458476;26;20576;-84
2024/04/17 05:46:12;;;;;;;2.33;0.67;;;7.50;99.00;;;;;;5474482;26;20630;-84
2024/04/17 05:48:39;;;;;;;1.50;1.37;;;7.50;99.00;;;;;;5477249;26;20636;-85
2024/04/17 05:51:08;;;;;;;1.37;0.80;;;7.60;99.00;;;;;;5471899;26;21230;-84
2024/04/17 05:53:34;;;;;;;1.80;1.00;;;7.60;99.00;;;;;;5476430;26;20648;-83
2024/04/17 05:56:03;;;;;;;1.00;0.90;;;7.60;99.00;;;;;;5476998;26;20656;-84
2024/04/17 05:58:29;;;;;;;4.50;2.87;;;7.60;99.00;;;;;;5470552;26;20565;-84
2024/04/17 06:01:00;;;;;;;3.70;3.40;;;7.60;99.00;;;;;;5475297;26;21080;-84
2024/04/17 06:03:26;;;;;;;10.60;9.60;;;7.60;99.00;;;;;;5476469;26;21134;-82
2024/04/17 06:05:55;;;;;;;10.27;9.47;;;7.70;99.00;;;;;;5470246;26;21343;-84
2024/04/17 06:08:21;;;;;;;5.80;5.40;;;7.70;99.00;;;;;;5451332;26;20616;-82
2024/04/17 06:10:50;;;;;;;1.50;1.40;;;7.70;99.00;;;;;;5471955;26;20655;-82
2024/04/17 06:13:16;;;;;;;1.53;1.20;;;7.70;99.00;;;;;;5478118;26;20617;-82
2024/04/17 06:15:47;;;;;;;1.13;1.03;;;7.70;99.00;;;;;;5470151;26;21163;-82
2024/04/17 06:18:15;;;;;;;2.13;1.20;;;7.70;99.00;;;;;;5475230;26;20609;-83
2024/04/17 06:20:44;;;;;;;2.70;2.60;;;7.70;99.00;;;;;;5475735;26;20702;-82
2024/04/17 06:23:10;;;;;;;4.43;4.03;;;7.70;99.00;;;;;;5470823;26;20560;-82
2024/04/17 06:25:45;;;;;;;7.50;6.90;;;7.70;99.00;;;;;;5457410;26;20576;-82
2024/04/17 06:28:11;;;;;;;2.90;2.70;;;7.70;99.00;;;;;;5465325;26;20685;-82
2024/04/17 06:30:40;;;;;;;1.53;1.43;;;7.70;99.00;;;;;;5476441;26;20605;-82
2024/04/17 06:33:06;;;;;;;1.40;1.30;;;7.70;99.00;;;;;;5470451;26;21127;-81
2024/04/17 06:35:38;;;;;;;1.70;1.60;;;7.70;99.00;;;;;;5462840;26;20556;-81
2024/04/17 06:38:05;;;;;;;1.20;1.17;;;7.80;99.00;;;;;;5466496;26;20548;-82
2024/04/17 06:40:33;;;;;;;1.50;1.27;;;7.80;99.00;;;;;;5470661;26;20553;-81
2024/04/17 06:43:00;;;;;;;2.93;2.73;;;7.70;99.00;;;;;;5477665;26;21211;-81
2024/04/17 06:45:28;;;;;;;8.33;7.73;;;7.70;99.00;;;;;;5471973;26;20584;-82
2024/04/17 06:47:55;;;;;;;3.10;2.83;;;7.70;99.00;;;;;;5472797;26;20609;-81
2024/04/17 06:50:23;;;;;;;1.83;1.50;;;7.80;99.00;;;;;;5475525;26;20648;-81
2024/04/17 06:52:52;;;;;;;1.40;1.30;;;7.80;99.00;;;;;;5465801;26;20560;-82
2024/04/17 06:55:21;;;;;;;1.50;1.40;;;7.80;99.00;;;;;;5472884;26;20655;-82
2024/04/17 06:57:47;;;;;;;1.50;1.40;;;7.80;99.00;;;;;;5476587;26;20604;-82
2024/04/17 07:00:17;;;;;;;1.80;1.70;;;7.80;99.00;;;;;;5470164;26;20612;-81
2024/04/17 07:02:43;;;;;;;1.90;1.40;;;7.70;99.00;;;;;;5480012;26;20565;-83
2024/04/17 07:05:12;;;;;;;1.73;1.60;;;7.70;99.00;;;;;;5480007;26;20561;-82
2024/04/17 07:07:38;;;;;;;2.20;1.50;;;7.70;99.00;;;;;;5472813;26;20572;-81
2024/04/17 07:10:10;;;;;;;2.17;1.33;;;7.80;99.00;;;;;;5478677;26;20687;-82
2024/04/17 07:12:37;;;;;;;1.87;1.67;;;7.80;99.00;;;;;;5477833;26;20556;-80
2024/04/17 07:15:06;;;;;;;7.07;6.47;;;7.90;99.00;;;;;;5472912;26;20560;-80
2024/04/17 07:17:32;;;;;;;3.03;2.73;;;7.90;99.00;;;;;;5480292;26;20557;-82
2024/04/17 07:20:01;;;;;;;2.13;1.97;;;7.80;99.00;;;;;;5478052;26;20638;-82
2024/04/17 07:22:27;;;;;;;1.23;1.13;;;7.70;99.00;;;;;;5474528;26;21020;-82
2024/04/17 07:24:56;;;;;;;1.23;1.13;;;7.70;99.00;;;;;;5478958;26;20615;-82
2024/04/17 07:27:24;;;;;;;1.33;1.23;;;7.70;99.00;;;;;;5475914;26;20560;-82
2024/04/17 07:29:53;;;;;;;12.03;7.33;;;7.60;99.00;;;;;;5475086;26;21184;-82
2024/04/17 07:32:19;;;;;;;5.03;3.33;;;7.70;99.00;;;;;;5480592;26;20568;-82
2024/04/17 07:34:48;;;;;;;3.33;1.97;;;7.70;99.00;;;;;;5471814;26;20609;-82
2024/04/17 07:37:15;;;;;;;2.10;1.93;;;7.80;99.00;;;;;;5476877;26;20611;-82
2024/04/17 07:39:44;;;;;;;6.00;3.90;;;7.80;99.00;;;;;;5479439;26;20573;-82
2024/04/17 07:42:10;;;;;;;6.13;5.63;;;7.80;99.00;;;;;;5472887;26;20554;-80
2024/04/17 07:44:41;;;;;;;4.30;2.30;;;7.80;99.00;;;;;;5483150;26;20614;-84
2024/04/17 07:47:07;;;;;;;2.17;1.90;;;7.80;99.00;;;;;;5482120;26;21287;-79
2024/04/17 07:49:36;;;;;;;1.70;1.60;;;7.90;99.00;;;;;;5472551;26;21112;-81
2024/04/17 07:52:05;;;;;;;3.70;1.90;;;7.90;99.00;;;;;;5469672;26;20564;-78
2024/04/17 07:54:31;;;;;;;2.20;2.00;;;7.90;99.00;;;;;;5476422;26;20544;-80
2024/04/17 07:57:00;;;;;;;1.70;1.60;;;7.90;99.00;;;;;;5478277;26;20568;-80
2024/04/17 07:59:29;;;;;;;4.87;2.80;;;7.90;99.00;;;;;;5467498;26;20557;-79
2024/04/17 08:01:58;;;;;;;6.23;4.07;;;7.80;99.00;;;;;;5478156;26;20601;-79
2024/04/17 08:04:26;;;;;;;3.90;3.60;;;7.70;99.00;;;;;;5477943;26;21179;-80
2024/04/17 08:06:52;;;;;;;5.23;4.13;;;7.70;99.00;;;;;;5472709;26;20636;-80
2024/04/17 08:09:21;;;;;;;5.00;3.73;;;7.60;99.00;;;;;;5468323;25;20568;-80
2024/04/17 08:11:47;;;;;;;4.37;3.60;;;7.60;99.00;;;;;;5474694;26;20638;-80
2024/04/17 08:14:16;;;;;;;6.10;5.50;;;7.60;99.00;;;;;;5479248;26;20664;-80
2024/04/17 08:16:42;;;;;;;6.77;6.00;;;7.50;99.00;;;;;;5453193;26;20580;-81
2024/04/17 08:19:14;;;;;;;4.97;4.40;;;7.30;99.00;;;;;;5474019;26;20648;-82
2024/04/17 08:21:40;;;;;;;11.80;7.83;;;7.30;99.00;;;;;;5479284;26;20565;-81
2024/04/17 08:24:09;;;;;;;7.73;5.23;;;7.30;99.00;;;;;;5471835;26;20589;-81
2024/04/17 08:26:35;;;;;;;9.40;7.43;;;7.30;99.00;;;;;;5478525;26;20577;-82
2024/04/17 08:29:04;;;;;;;7.80;5.37;;;7.30;99.00;;;;;;5478686;26;20613;-81
2024/04/17 08:31:30;;;;;;;4.87;4.37;;;7.30;99.00;;;;;;5463299;26;21031;-77
2024/04/17 08:33:58;;;;;;;6.23;5.17;;;7.30;99.00;;;;;;5477623;26;20549;-78
2024/04/17 08:36:27;;;;;;;5.60;5.07;;;7.40;99.00;;;;;;5479374;26;20669;-77
2024/04/17 08:38:56;;;;;;;5.00;4.50;;;7.30;99.00;;;;;;5472466;26;20648;-79
2024/04/17 08:41:28;;;;;;;6.17;4.90;;;7.30;99.00;;;;;;5459579;26;20560;-78
2024/04/17 08:44:02;;;;;;;4.70;4.30;;;7.30;99.00;;;;;;5473280;26;20577;-77
2024/04/17 08:46:29;;;;;;;4.80;3.80;;;7.30;99.00;;;;;;5473159;26;20562;-78
2024/04/17 08:48:58;;;;;;;4.87;4.27;;;7.30;99.00;;;;;;5478654;26;20891;-77
2024/04/17 08:51:28;;;;;;;4.47;4.03;;;7.40;99.00;;;;;;5479502;26;20648;-79
2024/04/17 08:53:58;;;;;;;6.50;5.00;;;7.40;99.00;;;;;;5471770;26;20605;-77
2024/04/17 08:56:25;;;;;;;5.07;4.50;;;7.30;99.00;;;;;;5460008;26;20552;-78
2024/04/17 08:58:55;;;;;;;4.03;3.60;;;7.30;99.00;;;;;;5476709;26;20560;-77
2024/04/17 09:01:23;;;;;;;6.10;3.67;;;7.30;99.00;;;;;;5478755;26;20621;-78
2024/04/17 09:03:53;;;;;;;4.43;4.03;;;7.20;99.00;;;;;;5471695;26;20557;-76
2024/04/17 09:06:20;;;;;;;6.10;3.80;;;7.10;99.00;;;;;;5473953;26;20616;-77
2024/04/17 09:08:52;;;;;;;4.90;4.40;;;7.00;99.00;;;;;;5475421;26;20609;-78
2024/04/17 09:11:20;;;;;;;4.97;4.40;;;7.10;99.00;;;;;;5475702;26;20651;-77
2024/04/17 09:13:49;;;;;;;7.40;5.60;;;7.10;99.00;;;;;;5477984;26;20616;-78
2024/04/17 09:16:15;;;;;;;4.90;4.40;;;7.10;99.00;;;;;;5471944;26;20990;-77
2024/04/17 09:18:44;;;;;;;6.57;5.77;;;7.20;99.00;;;;;;5475752;26;20571;-77
2024/04/17 09:21:10;;;;;;;6.17;4.90;;;7.20;99.00;;;;;;5479068;26;21027;-77
2024/04/17 09:23:39;;;;;;;9.10;4.97;;;7.10;99.00;;;;;;5470065;26;20700;-79
2024/04/17 09:26:16;;;;;;;6.40;4.53;;;7.20;99.00;;;;;;5477705;26;21176;-79
2024/04/17 09:28:45;;;;;;;6.57;5.87;;;7.20;99.00;;;;;;5466640;26;20642;-79
2024/04/17 09:31:12;;;;;;;7.07;5.10;;;7.20;99.00;;;;;;5454818;26;21038;-80
2024/04/17 09:33:46;;;;;;;7.43;5.27;;;7.20;99.00;;;;;;5472666;26;20560;-81
2024/04/17 09:36:12;;;;;;;12.40;6.90;;;7.20;99.00;;;;;;5478844;26;20564;-77
2024/04/17 09:38:41;;;;;;;6.47;5.77;;;7.20;99.00;;;;;;5471413;26;20643;-79
2024/04/17 09:41:09;;;;;;;6.43;5.73;;;7.20;99.00;;;;;;5453251;26;20562;-78
2024/04/17 09:43:44;;;;;;;5.93;4.70;;;7.30;99.00;;;;;;5474484;26;20670;-78
2024/04/17 09:46:14;;;;;;;3.50;3.20;;;7.20;99.00;;;;;;5475734;26;20611;-77
2024/04/17 09:48:46;;;;;;;4.50;4.10;;;7.10;99.00;;;;;;5471751;26;20654;-76
2024/04/17 09:51:15;;;;;;;4.90;4.50;;;7.00;99.00;;;;;;5469259;26;20609;-75
2024/04/17 09:53:49;;;;;;;3.87;3.47;;;7.10;99.00;;;;;;5470874;26;20561;-77
2024/04/17 09:56:16;;;;;;;4.10;3.20;;;7.00;99.00;;;;;;5450512;26;20905;-78
2024/04/17 09:58:49;;;;;;;20.47;13.20;;;7.00;99.00;;;;;;5475883;26;20557;-79
2024/04/17 10:01:17;;;;;;;5.73;4.47;;;7.10;99.00;;;;;;5453237;26;20666;-77
2024/04/17 10:03:46;;;;;;;3.93;3.63;;;7.20;99.00;;;;;;5476291;26;20561;-78
2024/04/17 10:06:13;;;;;;;4.97;3.83;;;7.00;99.00;;;;;;5477869;26;20653;-78
2024/04/17 10:08:44;;;;;;;6.33;3.90;;;7.10;99.00;;;;;;5470826;26;20740;-78
2024/04/17 10:11:10;;;;;;;6.10;3.90;;;7.10;99.00;;;;;;5469186;26;21240;-79
2024/04/17 10:13:41;;;;;;;5.93;4.20;;;7.20;99.00;;;;;;5472947;26;20556;-78
2024/04/17 10:16:12;;;;;;;5.13;3.73;;;7.30;99.00;;;;;;5477629;26;20612;-79
2024/04/17 10:18:41;;;;;;;4.10;3.70;;;7.30;99.00;;;;;;5469817;26;20909;-78
2024/04/17 10:21:17;;;;;;;5.80;3.67;;;7.30;99.00;;;;;;5472571;26;20557;-79
2024/04/17 10:23:46;;;;;;;3.43;3.07;;;7.30;99.00;;;;;;5462356;26;20636;-79
2024/04/17 10:26:12;;;;;;;4.30;3.80;;;7.40;99.00;;;;;;5469401;26;20562;-78
2024/04/17 10:28:42;;;;;;;3.70;3.40;;;7.50;99.00;;;;;;5477083;26;20643;-78
2024/04/17 10:31:11;;;;;;;5.20;3.20;;;7.60;99.00;;;;;;5477719;26;20565;-78
2024/04/17 10:33:41;;;;;;;6.90;3.80;;;7.60;99.00;;;;;;5470182;26;21111;-78
2024/04/17 10:36:07;;;;;;;3.93;3.17;;;7.70;99.00;;;;;;5455194;26;20565;-75
2024/04/17 10:38:36;;;;;;;4.93;3.07;;;7.70;99.00;;;;;;5477538;26;20561;-76
2024/04/17 10:41:03;;;;;;;4.50;2.90;;;7.70;99.00;;;;;;5477910;26;20656;-76
2024/04/17 10:43:34;;;;;;;4.13;3.73;;;7.80;99.00;;;;;;5475470;26;20649;-75
2024/04/17 10:46:05;;;;;;;4.67;2.80;;;7.90;99.00;;;;;;5474217;26;20604;-75
2024/04/17 10:48:45;;;;;;;3.93;2.83;;;7.90;99.00;;;;;;5465087;26;20650;-75
2024/04/17 10:51:14;;;;;;;5.70;3.57;;;7.90;99.00;;;;;;5468602;26;20560;-74
2024/04/17 10:53:45;;;;;;;3.07;2.80;;;8.00;99.00;;;;;;5454015;26;20554;-73
2024/04/17 10:56:12;;;;;;;5.83;3.60;;;8.00;99.00;;;;;;5453982;26;20614;-75
2024/04/17 10:58:42;;;;;;;3.40;3.07;;;8.10;99.00;;;;;;5475590;26;21185;-75
2024/04/17 11:01:08;;;;;;;5.80;3.50;;;8.20;99.00;;;;;;5480597;26;20564;-76
2024/04/17 11:03:39;;;;;;;6.37;3.60;;;8.20;99.00;;;;;;5456359;26;20632;-76
2024/04/17 11:06:08;;;;;;;3.93;3.63;;;8.30;99.00;;;;;;5478035;26;21155;-76
2024/04/17 11:08:42;;;;;;;3.50;3.17;;;8.30;99.00;;;;;;5479623;26;20675;-75
2024/04/17 11:11:10;;;;;;;5.67;3.77;;;8.40;99.00;;;;;;5476233;26;20613;-77
2024/04/17 11:13:43;;;;;;;6.93;4.10;;;8.40;99.00;;;;;;5480391;26;20616;-75
2024/04/17 11:16:10;;;;;;;6.87;4.40;;;8.50;99.00;;;;;;5468728;26;21100;-75
2024/04/17 11:18:41;;;;;;;6.97;4.30;;;8.60;99.00;;;;;;5480349;26;20568;-75
2024/04/17 11:21:10;;;;;;;6.77;4.37;;;8.60;99.00;;;;;;5464832;26;20680;-74
2024/04/17 11:23:42;;;;;;;9.40;5.23;;;8.70;99.00;;;;;;5475108;26;20584;-78
2024/04/17 11:26:09;;;;;;;6.70;4.57;;;8.80;99.00;;;;;;5479115;26;20576;-75
2024/04/17 11:28:42;;;;;;;4.73;4.33;;;8.80;99.00;;;;;;5472735;26;20549;-77
2024/04/17 11:31:09;;;;;;;7.30;4.50;;;8.80;99.00;;;;;;5456705;26;20546;-76
2024/04/17 11:33:38;;;;;;;4.50;4.10;;;8.80;99.00;;;;;;5485697;26;20563;-76
2024/04/17 11:36:09;;;;;;;7.50;4.93;;;8.80;99.00;;;;;;5485217;26;20611;-77
2024/04/17 11:38:38;;;;;;;6.37;5.77;;;8.90;99.00;;;;;;5474887;26;21373;-77
2024/04/17 11:41:04;;;;;;;6.80;4.90;;;8.90;99.00;;;;;;5480287;26;21242;-77
2024/04/17 11:43:33;;;;;;;7.10;4.73;;;8.90;99.00;;;;;;5471095;25;21108;-77
2024/04/17 11:45:59;;;;;;;6.33;5.63;;;9.00;99.00;;;;;;5475340;26;21622;-78
2024/04/17 11:48:28;;;;;;;6.97;4.00;;;9.10;99.00;;;;;;5477643;26;21167;-78
2024/04/17 11:50:54;;;;;;;4.57;3.30;;;9.10;99.00;;;;;;5468354;26;20561;-78
2024/04/17 11:53:26;;;;;;;5.83;4.00;;;9.20;99.00;;;;;;5475121;26;20655;-79
2024/04/17 11:55:52;;;;;;;7.43;3.93;;;9.20;99.00;;;;;;5480662;26;20568;-79
2024/04/17 11:58:21;;;;;;;3.47;2.93;;;9.30;99.00;;;;;;5472747;26;20553;-79
2024/04/17 12:00:47;;;;;;;2.87;2.37;;;9.20;97.20;;;;;;5478644;26;20612;-80
2024/04/17 12:03:16;;;;;;;6.07;2.40;;;9.30;98.70;;;;;;5478597;26;20624;-80
2024/04/17 12:05:42;;;;;;;2.00;1.80;;;9.30;96.20;;;;;;5473221;26;20646;-80
2024/04/17 12:08:11;;;;;;;6.27;2.50;;;9.30;93.00;;;;;;5477650;26;20576;-79
2024/04/17 12:10:40;;;;;;;4.60;2.63;;;9.30;91.20;;;;;;5478393;26;20561;-79
2024/04/17 12:13:09;;;;;;;3.90;1.70;;;9.30;91.30;;;;;;5472117;26;20548;-79
2024/04/17 12:15:36;;;;;;;4.03;2.33;;;9.40;92.30;;;;;;5467102;26;21037;-78
2024/04/17 12:18:04;;;;;;;3.00;1.70;;;9.40;91.00;;;;;;5476221;26;20557;-79
2024/04/17 12:20:31;;;;;;;4.80;2.00;;;9.50;91.00;;;;;;5479343;26;20572;-79
2024/04/17 12:23:01;;;;;;;3.90;1.70;;;9.60;88.20;;;;;;5471888;26;20576;-79
2024/04/17 12:28:17;;;;;;;4.70;1.80;;;9.60;91.70;;;;;;5479863;26;20965;-79
2024/04/17 12:30:46;;;;;;;1.67;1.50;;;9.70;90.40;;;;;;5474153;26;20553;-78
2024/04/17 12:33:15;;;;;;;2.17;1.80;;;9.60;89.50;;;;;;5480127;26;20707;-78
2024/04/17 12:35:44;;;;;;;2.33;1.40;;;9.60;89.70;;;;;;5457295;26;20560;-78
2024/04/17 12:38:13;;;;;;;5.37;1.90;;;9.60;89.00;;;;;;5477363;26;20612;-78
2024/04/17 12:40:42;;;;;;;3.30;2.70;;;9.50;86.60;;;;;;5478491;26;21044;-79
2024/04/17 12:43:11;;;;;;;2.67;2.10;;;9.50;88.50;;;;;;5472682;26;20751;-79
2024/04/17 12:45:40;;;;;;;4.03;2.00;;;9.50;88.60;;;;;;5466255;26;20565;-80
2024/04/17 12:48:10;;;;;;;5.57;2.27;;;9.50;88.20;;;;;;5470925;26;20557;-78
2024/04/17 12:50:39;;;;;;;3.57;2.00;;;9.50;90.00;;;;;;5467492;26;20564;-80
2024/04/17 12:53:09;;;;;;;3.60;2.10;;;9.50;89.50;;;;;;5468388;26;20544;-80
2024/04/17 12:55:38;;;;;;;7.73;2.33;;;9.50;91.00;;;;;;5467577;26;20584;-84
2024/04/17 12:58:07;;;;;;;3.10;1.50;;;9.50;88.30;;;;;;5470400;26;20661;-78
2024/04/17 13:00:36;;;;;;;5.93;1.83;;;9.60;88.50;;;;;;5463401;26;20980;-80
2024/04/17 13:03:09;;;;;;;5.37;1.50;;;9.70;84.80;;;;;;5477861;26;20559;-82
2024/04/17 13:05:40;;;;;;;2.87;1.53;;;9.80;84.50;;;;;;5480775;25;20571;-80